createdAt,value
2023-05-25T00:00:53.395Z,6.00
2023-05-25T00:03:27.820Z,6.10
2023-05-25T00:05:54.778Z,6.10
2023-05-25T00:08:21.447Z,6.10
2023-05-25T00:10:48.176Z,6.20
2023-05-25T00:13:14.890Z,6.00
2023-05-25T00:15:41.673Z,6.00
2023-05-25T00:18:08.424Z,5.90
2023-05-25T00:20:35.561Z,5.80
2023-05-25T00:23:02.437Z,5.80
2023-05-25T00:25:29.560Z,5.80
2023-05-25T00:27:56.297Z,5.80
2023-05-25T00:30:23.078Z,5.80
2023-05-25T00:32:49.788Z,5.70
2023-05-25T00:35:16.566Z,5.70
2023-05-25T00:37:44.867Z,5.70
2023-05-25T00:40:15.652Z,5.70
2023-05-25T00:42:43.617Z,5.60
2023-05-25T00:45:11.272Z,5.70
2023-05-25T00:47:39.956Z,5.60
2023-05-25T00:50:09.378Z,5.60
2023-05-25T00:52:36.159Z,5.50
2023-05-25T00:55:03.640Z,5.50
2023-05-25T00:57:34.053Z,5.60
2023-05-25T01:00:02.274Z,5.60
2023-05-25T01:02:30.987Z,5.50
2023-05-25T01:05:00.986Z,5.50
2023-05-25T01:07:30.102Z,5.40
2023-05-25T01:10:06.698Z,5.40
2023-05-25T01:12:38.322Z,5.40
2023-05-25T01:15:06.317Z,5.40
2023-05-25T01:17:37.853Z,5.30
2023-05-25T01:20:11.413Z,5.30
2023-05-25T01:22:55.911Z,5.30
2023-05-25T01:25:28.732Z,5.30
2023-05-25T01:28:06.617Z,5.50
2023-05-25T01:30:40.044Z,5.40
2023-05-25T01:33:07.990Z,5.30
2023-05-25T01:35:36.117Z,5.20
2023-05-25T01:38:03.035Z,5.20
2023-05-25T01:40:29.799Z,5.10
2023-05-25T01:42:56.485Z,5.20
2023-05-25T01:45:23.633Z,5.30
2023-05-25T01:48:21.203Z,5.30
2023-05-25T01:50:59.140Z,5.40
2023-05-25T01:53:37.270Z,5.30
2023-05-25T01:56:08.641Z,5.20
2023-05-25T01:58:40.525Z,5.10
2023-05-25T02:01:09.276Z,5.10
2023-05-25T02:03:37.959Z,5.10
2023-05-25T02:06:04.973Z,5.20
2023-05-25T02:08:34.976Z,5.40
2023-05-25T02:11:02.102Z,5.60
2023-05-25T02:13:28.836Z,5.60
2023-05-25T02:15:56.353Z,5.60
2023-05-25T02:18:23.616Z,5.60
2023-05-25T02:20:53.966Z,5.70
2023-05-25T02:23:20.735Z,5.80
2023-05-25T02:25:47.431Z,5.90
2023-05-25T02:28:14.908Z,5.80
2023-05-25T02:30:41.627Z,5.80
2023-05-25T02:33:08.720Z,5.90
2023-05-25T02:35:35.458Z,5.90
2023-05-25T02:38:02.312Z,6.00
2023-05-25T02:40:29.628Z,6.10
2023-05-25T02:42:56.320Z,6.20
2023-05-25T02:45:22.998Z,6.30
2023-05-25T02:47:50.456Z,6.30
2023-05-25T02:50:18.574Z,6.40
2023-05-25T02:52:48.159Z,6.50
2023-05-25T02:55:14.957Z,6.50
2023-05-25T02:57:42.768Z,6.50
2023-05-25T03:00:12.980Z,6.40
2023-05-25T03:02:40.334Z,6.40
2023-05-25T03:05:08.605Z,6.40
2023-05-25T03:07:35.960Z,6.50
2023-05-25T03:10:02.917Z,6.60
2023-05-25T03:12:29.698Z,6.70
2023-05-25T03:14:56.481Z,6.70
2023-05-25T03:17:23.302Z,6.80
2023-05-25T03:19:49.992Z,6.80
2023-05-25T03:22:16.704Z,6.80
2023-05-25T03:24:43.415Z,6.80
2023-05-25T03:27:10.387Z,6.80
2023-05-25T03:29:37.110Z,6.90
2023-05-25T03:32:04.046Z,6.90
2023-05-25T03:34:35.272Z,7.00
2023-05-25T03:37:03.144Z,7.10
2023-05-25T03:39:29.882Z,7.20
2023-05-25T03:41:57.996Z,7.30
2023-05-25T03:44:25.286Z,7.30
2023-05-25T03:46:52.079Z,7.30
2023-05-25T03:49:18.787Z,7.30
2023-05-25T03:51:45.704Z,7.40
2023-05-25T03:54:13.627Z,7.60
2023-05-25T03:56:40.357Z,7.70
2023-05-25T03:59:07.066Z,7.80
2023-05-25T04:01:33.782Z,7.80
2023-05-25T04:04:02.420Z,7.90
2023-05-25T04:06:29.990Z,7.90
2023-05-25T04:08:57.944Z,8.00
2023-05-25T04:11:27.522Z,8.00
2023-05-25T04:13:54.285Z,8.00
2023-05-25T04:16:23.503Z,8.10
2023-05-25T04:18:50.356Z,8.20
2023-05-25T04:21:17.258Z,8.20
2023-05-25T04:23:44.328Z,8.30
2023-05-25T04:26:11.257Z,8.30
2023-05-25T04:28:43.065Z,8.30
2023-05-25T04:31:14.675Z,8.40
2023-05-25T04:33:47.347Z,8.50
2023-05-25T04:36:18.002Z,8.60
2023-05-25T04:38:47.811Z,8.70
2023-05-25T04:41:15.392Z,8.70
2023-05-25T04:44:03.601Z,8.90
2023-05-25T04:46:32.800Z,8.90
2023-05-25T04:48:59.597Z,8.90
2023-05-25T04:51:26.458Z,9.00
2023-05-25T04:53:53.202Z,9.00
2023-05-25T04:56:22.141Z,9.10
2023-05-25T04:58:48.843Z,9.10
2023-05-25T05:01:16.521Z,9.10
2023-05-25T05:03:43.406Z,9.20
2023-05-25T05:06:10.751Z,9.30
2023-05-25T05:08:38.036Z,9.30
2023-05-25T05:11:05.230Z,9.30
2023-05-25T05:13:31.966Z,9.40
2023-05-25T05:15:58.863Z,9.40
2023-05-25T05:18:25.925Z,9.40
2023-05-25T05:20:52.644Z,9.50
2023-05-25T05:23:19.671Z,9.40
2023-05-25T05:25:46.664Z,9.50
2023-05-25T05:28:14.742Z,9.50
2023-05-25T05:30:41.591Z,9.50
2023-05-25T05:33:09.373Z,9.50
2023-05-25T05:35:44.752Z,9.50
2023-05-25T05:38:15.630Z,9.50
2023-05-25T05:40:42.676Z,9.60
2023-05-25T05:43:13.718Z,9.60
2023-05-25T05:45:41.146Z,9.60
2023-05-25T05:48:11.204Z,9.70
2023-05-25T05:50:41.759Z,9.60
2023-05-25T05:53:10.057Z,9.70
2023-05-25T05:55:37.131Z,9.80
2023-05-25T05:58:04.113Z,9.80
2023-05-25T06:00:31.285Z,9.90
2023-05-25T06:02:58.124Z,9.90
2023-05-25T06:05:27.224Z,9.80
2023-05-25T06:07:55.371Z,9.80
2023-05-25T06:10:22.690Z,9.70
2023-05-25T06:12:50.701Z,9.70
2023-05-25T06:15:17.699Z,9.80
2023-05-25T06:17:46.525Z,9.80
2023-05-25T06:20:15.029Z,9.90
2023-05-25T06:22:42.234Z,9.90
2023-05-25T06:25:10.668Z,10.00
2023-05-25T06:27:37.983Z,10.00
2023-05-25T06:30:05.210Z,10.00
2023-05-25T06:32:32.052Z,10.10
2023-05-25T06:34:58.915Z,10.40
2023-05-25T06:37:27.193Z,10.70
2023-05-25T06:39:56.234Z,10.80
2023-05-25T06:42:24.207Z,11.20
2023-05-25T06:44:55.302Z,11.20
2023-05-25T06:47:22.076Z,11.30
2023-05-25T06:49:49.376Z,11.50
2023-05-25T06:52:16.197Z,11.60
2023-05-25T06:54:42.861Z,11.40
2023-05-25T06:57:09.547Z,11.70
2023-05-25T06:59:36.236Z,11.70
2023-05-25T07:02:02.974Z,11.80
2023-05-25T07:04:29.700Z,11.90
2023-05-25T07:06:56.400Z,11.90
2023-05-25T07:09:23.091Z,11.90
2023-05-25T07:11:49.740Z,12.10
2023-05-25T07:14:17.816Z,12.20
2023-05-25T07:16:48.058Z,12.40
2023-05-25T07:19:14.995Z,12.70
2023-05-25T07:21:41.668Z,12.80
2023-05-25T07:24:08.401Z,13.20
2023-05-25T07:26:36.288Z,13.00
2023-05-25T07:29:03.173Z,13.10
2023-05-25T07:31:29.958Z,12.90
2023-05-25T07:33:56.647Z,13.20
2023-05-25T07:36:24.951Z,13.20
2023-05-25T07:38:51.781Z,13.50
2023-05-25T07:41:18.496Z,13.40
2023-05-25T07:43:45.793Z,13.30
2023-05-25T07:46:12.535Z,13.30
2023-05-25T07:48:39.371Z,13.40
2023-05-25T07:51:06.067Z,13.20
2023-05-25T07:53:32.700Z,13.30
2023-05-25T07:55:59.350Z,13.30
2023-05-25T07:58:26.295Z,13.60
2023-05-25T08:00:52.979Z,13.90
2023-05-25T08:03:26.106Z,14.00
2023-05-25T08:05:58.830Z,14.10
2023-05-25T08:08:25.679Z,14.20
2023-05-25T08:10:52.337Z,14.00
2023-05-25T08:13:19.092Z,13.70
2023-05-25T08:15:46.014Z,13.80
2023-05-25T08:18:12.914Z,14.00
2023-05-25T08:20:39.772Z,14.00
2023-05-25T08:23:06.766Z,14.20
2023-05-25T08:25:33.457Z,14.20
2023-05-25T08:28:00.109Z,13.90
2023-05-25T08:30:26.909Z,14.00
2023-05-25T08:32:53.598Z,14.00
2023-05-25T08:35:20.296Z,14.00
2023-05-25T08:37:47.073Z,13.80
2023-05-25T08:40:17.070Z,13.50
2023-05-25T08:42:44.513Z,13.30
2023-05-25T08:45:22.623Z,13.20
2023-05-25T08:47:59.506Z,13.20
2023-05-25T08:50:28.042Z,13.40
2023-05-25T08:52:57.393Z,13.40
2023-05-25T08:55:27.013Z,13.50
2023-05-25T08:58:12.908Z,13.70
2023-05-25T09:00:45.133Z,13.70
2023-05-25T09:03:17.725Z,13.50
2023-05-25T09:05:46.014Z,13.40
2023-05-25T09:08:13.467Z,13.20
2023-05-25T09:10:40.880Z,13.20
2023-05-25T09:13:20.475Z,13.30
2023-05-25T09:15:48.692Z,13.60
2023-05-25T09:18:15.471Z,14.00
2023-05-25T09:20:44.340Z,13.90
2023-05-25T09:23:14.272Z,13.90
2023-05-25T09:25:41.812Z,13.90
2023-05-25T09:28:25.394Z,14.00
2023-05-25T09:30:54.264Z,14.40
2023-05-25T09:33:21.380Z,14.70
2023-05-25T09:35:48.671Z,14.90
2023-05-25T09:38:16.886Z,15.50
2023-05-25T09:40:45.039Z,15.80
2023-05-25T09:43:17.270Z,15.80
2023-05-25T09:45:49.485Z,15.40
2023-05-25T09:48:17.861Z,15.00
2023-05-25T09:50:46.071Z,14.60
2023-05-25T09:53:16.271Z,14.40
2023-05-25T09:55:53.244Z,14.40
2023-05-25T09:58:23.850Z,14.70
2023-05-25T10:00:54.522Z,14.90
2023-05-25T10:03:21.894Z,15.10
2023-05-25T10:05:49.286Z,15.30
2023-05-25T10:08:19.942Z,15.70
2023-05-25T10:10:49.752Z,15.90
2023-05-25T10:13:20.782Z,15.50
2023-05-25T10:15:48.788Z,15.30
2023-05-25T10:18:17.475Z,15.20
2023-05-25T10:20:47.734Z,15.20
2023-05-25T10:23:18.236Z,15.30
2023-05-25T10:25:46.778Z,15.50
2023-05-25T10:28:29.400Z,15.60
2023-05-25T10:30:57.983Z,15.70
2023-05-25T10:33:25.005Z,15.80
2023-05-25T10:36:09.192Z,16.00
2023-05-25T10:38:40.171Z,16.10
2023-05-25T10:41:09.849Z,15.90
2023-05-25T10:43:40.973Z,15.90
2023-05-25T10:46:08.301Z,16.30
2023-05-25T10:48:47.293Z,16.70
2023-05-25T10:51:14.335Z,16.60
2023-05-25T10:53:45.892Z,16.60
2023-05-25T10:56:13.388Z,16.50
2023-05-25T10:58:47.166Z,16.10
2023-05-25T11:01:16.017Z,15.90
2023-05-25T11:04:17.302Z,15.70
2023-05-25T11:06:47.103Z,15.40
2023-05-25T11:09:33.067Z,15.20
2023-05-25T11:12:01.685Z,15.30
2023-05-25T11:14:30.643Z,15.50
2023-05-25T11:17:14.435Z,15.70
2023-05-25T11:19:51.497Z,15.80
2023-05-25T11:22:23.977Z,16.00
2023-05-25T11:24:52.204Z,16.80
2023-05-25T11:27:29.495Z,17.10
2023-05-25T11:29:58.303Z,17.20
2023-05-25T11:32:27.208Z,17.20
2023-05-25T11:34:55.092Z,16.80
2023-05-25T11:37:28.698Z,16.40
2023-05-25T11:39:55.615Z,16.30
2023-05-25T11:42:24.436Z,16.60
2023-05-25T11:44:51.722Z,17.30
2023-05-25T11:47:23.504Z,17.40
2023-05-25T11:49:50.578Z,17.00
2023-05-25T11:52:18.847Z,16.40
2023-05-25T11:54:46.349Z,16.20
2023-05-25T11:57:21.442Z,15.90
2023-05-25T11:59:52.474Z,15.70
2023-05-25T12:02:20.568Z,15.10
2023-05-25T12:04:55.395Z,15.30
2023-05-25T12:07:22.609Z,15.40
2023-05-25T12:09:49.313Z,15.60
2023-05-25T12:12:16.230Z,15.70
2023-05-25T12:14:50.129Z,16.00
2023-05-25T12:17:18.765Z,16.20
2023-05-25T12:19:45.740Z,16.60
2023-05-25T12:22:13.693Z,17.00
2023-05-25T12:24:41.236Z,17.20
2023-05-25T12:27:18.586Z,17.70
2023-05-25T12:29:49.047Z,18.40
2023-05-25T12:32:16.214Z,19.00
2023-05-25T12:34:43.068Z,18.70
2023-05-25T12:37:20.570Z,18.40
2023-05-25T12:39:48.045Z,18.30
2023-05-25T12:42:16.453Z,18.00
2023-05-25T12:44:44.729Z,17.80
2023-05-25T12:47:20.984Z,17.50
2023-05-25T12:49:51.278Z,17.20
2023-05-25T12:52:42.504Z,17.10
2023-05-25T12:55:26.082Z,17.20
2023-05-25T12:58:26.659Z,17.80
2023-05-25T13:00:53.492Z,18.30
2023-05-25T13:03:20.311Z,18.70
2023-05-25T13:05:47.022Z,18.90
2023-05-25T13:08:14.027Z,18.80
2023-05-25T13:10:40.734Z,18.70
2023-05-25T13:13:07.857Z,18.10
2023-05-25T13:15:34.523Z,18.00
2023-05-25T13:18:01.290Z,17.90
2023-05-25T13:20:32.402Z,17.90
2023-05-25T13:22:59.306Z,17.80
2023-05-25T13:25:28.046Z,17.60
2023-05-25T13:27:57.498Z,17.60
2023-05-25T13:30:24.227Z,18.10
2023-05-25T13:32:52.658Z,18.40
2023-05-25T13:35:24.115Z,18.00
2023-05-25T13:37:51.072Z,17.50
2023-05-25T13:40:18.261Z,17.00
2023-05-25T13:42:45.023Z,16.90
2023-05-25T13:45:11.863Z,16.90
2023-05-25T13:47:38.757Z,16.50
2023-05-25T13:50:06.194Z,16.30
2023-05-25T13:52:33.019Z,16.20
2023-05-25T13:54:59.671Z,16.20
2023-05-25T13:57:26.389Z,16.20
2023-05-25T13:59:53.059Z,16.40
2023-05-25T14:02:19.821Z,16.60
2023-05-25T14:04:46.584Z,16.70
2023-05-25T14:07:14.171Z,16.80
2023-05-25T14:09:40.934Z,17.30
2023-05-25T14:12:07.841Z,18.60
2023-05-25T14:14:34.550Z,19.60
2023-05-25T14:17:01.598Z,19.40
2023-05-25T14:19:28.795Z,19.30
2023-05-25T14:22:11.599Z,19.00
2023-05-25T14:24:39.172Z,18.60
2023-05-25T14:27:07.199Z,18.10
2023-05-25T14:29:34.199Z,17.70
2023-05-25T14:32:01.095Z,17.90
2023-05-25T14:34:27.971Z,18.10
2023-05-25T14:36:54.636Z,18.50
2023-05-25T14:39:21.293Z,18.80
2023-05-25T14:41:47.948Z,18.60
2023-05-25T14:44:14.630Z,18.30
2023-05-25T14:46:41.295Z,18.00
2023-05-25T14:49:08.002Z,18.40
2023-05-25T14:51:34.650Z,19.30
2023-05-25T14:54:03.500Z,20.30
2023-05-25T14:56:30.127Z,21.00
2023-05-25T14:58:56.901Z,21.20
2023-05-25T15:01:25.331Z,21.50
2023-05-25T15:03:52.557Z,21.20
2023-05-25T15:06:19.542Z,20.70
2023-05-25T15:08:46.344Z,20.40
2023-05-25T15:11:13.024Z,20.60
2023-05-25T15:13:40.876Z,20.60
2023-05-25T15:16:11.721Z,21.30
2023-05-25T15:18:38.483Z,21.60
2023-05-25T15:21:05.294Z,22.10
2023-05-25T15:23:32.106Z,22.00
2023-05-25T15:26:03.703Z,22.60
2023-05-25T15:28:31.389Z,22.40
2023-05-25T15:31:00.118Z,22.00
2023-05-25T15:33:43.545Z,22.20
2023-05-25T15:36:15.080Z,22.00
2023-05-25T15:38:43.216Z,21.90
2023-05-25T15:41:10.255Z,21.10
2023-05-25T15:43:36.996Z,20.70
2023-05-25T15:46:03.790Z,20.20
2023-05-25T15:48:30.598Z,20.70
2023-05-25T15:50:57.245Z,21.20
2023-05-25T15:53:23.919Z,21.60
2023-05-25T15:55:50.591Z,21.00
2023-05-25T15:58:17.713Z,20.50
2023-05-25T16:00:44.414Z,21.00
2023-05-25T16:03:11.175Z,21.50
2023-05-25T16:05:37.895Z,21.40
2023-05-25T16:08:04.550Z,21.00
2023-05-25T16:10:31.245Z,20.50
2023-05-25T16:12:57.941Z,20.10
2023-05-25T16:15:24.659Z,19.90
2023-05-25T16:17:51.301Z,19.70
2023-05-25T16:20:18.353Z,19.30
2023-05-25T16:22:45.078Z,18.90
2023-05-25T16:25:11.734Z,18.50
2023-05-25T16:27:38.425Z,18.30
2023-05-25T16:30:05.882Z,18.00
2023-05-25T16:32:32.732Z,17.80
2023-05-25T16:34:59.597Z,18.00
2023-05-25T16:37:26.330Z,18.80
2023-05-25T16:39:53.102Z,18.70
2023-05-25T16:42:20.071Z,18.40
2023-05-25T16:44:46.703Z,17.80
2023-05-25T16:47:13.450Z,17.30
2023-05-25T16:49:40.050Z,17.00
2023-05-25T16:52:06.771Z,17.50
2023-05-25T16:54:33.438Z,18.30
2023-05-25T16:57:00.135Z,18.60
2023-05-25T16:59:26.850Z,18.80
2023-05-25T17:01:53.610Z,19.00
2023-05-25T17:04:20.428Z,19.20
2023-05-25T17:06:47.192Z,19.40
2023-05-25T17:09:13.994Z,19.60
2023-05-25T17:11:40.642Z,19.50
2023-05-25T17:14:07.276Z,19.50
2023-05-25T17:16:34.047Z,19.30
2023-05-25T17:19:00.720Z,19.40
2023-05-25T17:21:27.372Z,19.60
2023-05-25T17:23:54.005Z,19.80
2023-05-25T17:26:20.669Z,20.10
2023-05-25T17:28:47.325Z,20.10
2023-05-25T17:31:14.015Z,19.90
2023-05-25T17:33:40.763Z,19.60
2023-05-25T17:36:07.552Z,19.30
2023-05-25T17:38:36.882Z,19.00
2023-05-25T17:41:03.581Z,19.00
2023-05-25T17:43:30.242Z,19.10
2023-05-25T17:45:59.015Z,18.70
2023-05-25T17:48:25.944Z,18.40
2023-05-25T17:50:52.628Z,18.30
2023-05-25T17:53:19.317Z,18.30
2023-05-25T17:55:46.146Z,18.30
2023-05-25T17:58:12.975Z,18.10
2023-05-25T18:00:39.629Z,17.90
2023-05-25T18:03:06.516Z,17.70
2023-05-25T18:05:33.266Z,17.70
2023-05-25T18:08:00.049Z,17.70
2023-05-25T18:10:26.934Z,17.50
2023-05-25T18:12:54.133Z,17.30
2023-05-25T18:15:21.680Z,17.30
2023-05-25T18:17:48.456Z,17.00
2023-05-25T18:20:15.492Z,16.90
2023-05-25T18:22:42.233Z,16.80
2023-05-25T18:25:09.289Z,16.50
2023-05-25T18:27:35.992Z,16.30
2023-05-25T18:30:02.818Z,16.10
2023-05-25T18:32:29.590Z,15.90
2023-05-25T18:34:57.320Z,15.80
2023-05-25T18:37:24.392Z,15.50
2023-05-25T18:39:51.051Z,15.30
2023-05-25T18:42:17.732Z,15.10
2023-05-25T18:44:44.445Z,15.00
2023-05-25T18:47:11.684Z,14.70
2023-05-25T18:49:38.781Z,14.50
2023-05-25T18:52:06.538Z,14.30
2023-05-25T18:54:33.250Z,14.10
2023-05-25T18:56:59.882Z,13.90
2023-05-25T18:59:26.607Z,13.70
2023-05-25T19:01:53.303Z,13.50
2023-05-25T19:04:20.562Z,13.30
2023-05-25T19:06:47.273Z,13.10
2023-05-25T19:09:13.920Z,13.00
2023-05-25T19:11:40.866Z,12.80
2023-05-25T19:14:07.526Z,12.70
2023-05-25T19:16:34.250Z,12.50
2023-05-25T19:19:00.935Z,12.30
2023-05-25T19:21:27.607Z,12.20
2023-05-25T19:23:54.367Z,12.10
2023-05-25T19:26:21.007Z,11.90
2023-05-25T19:28:47.660Z,11.80
2023-05-25T19:31:14.334Z,11.60
2023-05-25T19:33:41.043Z,11.50
2023-05-25T19:36:07.835Z,11.40
2023-05-25T19:38:41.361Z,11.30
2023-05-25T19:41:08.794Z,11.20
2023-05-25T19:43:36.089Z,11.10
2023-05-25T19:47:05.872Z,11.10
2023-05-25T19:49:32.533Z,11.00
2023-05-25T19:51:59.355Z,10.90
2023-05-25T19:54:26.037Z,10.80
2023-05-25T19:56:52.676Z,10.70
2023-05-25T19:59:21.160Z,10.50
2023-05-25T20:01:48.126Z,10.50
2023-05-25T20:04:14.882Z,10.30
2023-05-25T20:06:41.516Z,10.20
2023-05-25T20:09:12.276Z,10.10
2023-05-25T20:11:39.135Z,10.00
2023-05-25T20:14:07.577Z,9.90
2023-05-25T20:16:34.474Z,10.00
2023-05-25T20:19:02.095Z,10.00
2023-05-25T20:21:30.319Z,10.00
2023-05-25T20:23:57.392Z,10.00
2023-05-25T20:26:24.070Z,9.90
2023-05-25T20:28:50.976Z,9.90
2023-05-25T20:31:17.688Z,9.90
2023-05-25T20:33:44.712Z,9.90
2023-05-25T20:36:12.306Z,10.00
2023-05-25T20:38:39.364Z,10.00
2023-05-25T20:41:06.050Z,10.00
2023-05-25T20:43:33.023Z,9.90
2023-05-25T20:45:59.743Z,9.80
2023-05-25T20:48:26.399Z,9.70
2023-05-25T20:51:34.135Z,9.60
2023-05-25T20:54:00.806Z,9.50
2023-05-25T20:56:27.666Z,9.50
2023-05-25T20:58:54.324Z,9.50
2023-05-25T21:01:21.312Z,9.50
2023-05-25T21:03:48.129Z,9.40
2023-05-25T21:06:14.899Z,9.30
2023-05-25T21:08:41.527Z,9.40
2023-05-25T21:11:08.676Z,9.40
2023-05-25T21:13:35.761Z,9.40
2023-05-25T21:16:02.447Z,9.30
2023-05-25T21:18:29.140Z,9.10
2023-05-25T21:20:55.960Z,9.10
2023-05-25T21:23:22.629Z,9.10
2023-05-25T21:25:49.457Z,9.00
2023-05-25T21:28:16.181Z,9.00
2023-05-25T21:30:42.879Z,9.10
2023-05-25T21:33:09.559Z,9.00
2023-05-25T21:35:36.224Z,8.90
2023-05-25T21:38:03.087Z,8.90
2023-05-25T21:40:29.827Z,8.90
2023-05-25T21:42:56.487Z,8.80
2023-05-25T21:45:23.256Z,8.80
2023-05-25T21:47:50.006Z,8.80
2023-05-25T21:50:16.756Z,8.70
2023-05-25T21:52:43.426Z,8.60
2023-05-25T21:55:10.155Z,8.60
2023-05-25T21:57:36.867Z,8.50
2023-05-25T22:00:05.120Z,8.50
2023-05-25T22:02:39.370Z,8.30
2023-05-25T22:05:06.473Z,8.20
2023-05-25T22:07:33.130Z,8.20
2023-05-25T22:09:59.793Z,8.10
2023-05-25T22:12:26.492Z,8.10
2023-05-25T22:14:53.228Z,8.10
2023-05-25T22:17:20.036Z,8.20
2023-05-25T22:19:55.283Z,8.30
2023-05-25T22:22:32.964Z,8.30
2023-05-25T22:24:59.623Z,8.30
2023-05-25T22:27:26.306Z,8.30
2023-05-25T22:29:52.984Z,8.30
2023-05-25T22:32:19.618Z,8.30
2023-05-25T22:34:47.178Z,8.20
2023-05-25T22:37:13.987Z,8.10
2023-05-25T22:39:40.698Z,8.10
2023-05-25T22:42:07.427Z,8.10
2023-05-25T22:44:35.502Z,8.10
2023-05-25T22:47:02.552Z,8.00
2023-05-25T22:49:29.266Z,7.90
2023-05-25T22:51:56.004Z,7.90
2023-05-25T22:54:22.641Z,7.80
2023-05-25T22:56:49.578Z,7.70
2023-05-25T22:59:16.248Z,7.60
2023-05-25T23:01:42.998Z,7.60
2023-05-25T23:04:09.864Z,7.60
2023-05-25T23:06:36.981Z,7.50
2023-05-25T23:09:03.758Z,7.50
2023-05-25T23:11:30.411Z,7.40
2023-05-25T23:13:57.952Z,7.40
2023-05-25T23:16:26.620Z,7.40
2023-05-25T23:18:53.504Z,7.40
2023-05-25T23:21:20.287Z,7.40
2023-05-25T23:23:46.949Z,7.40
2023-05-25T23:26:13.645Z,7.30
2023-05-25T23:28:40.574Z,7.30
2023-05-25T23:31:07.596Z,7.30
2023-05-25T23:33:34.280Z,7.30
2023-05-25T23:36:01.139Z,7.20
2023-05-25T23:38:27.843Z,7.20
2023-05-25T23:40:54.496Z,7.10
2023-05-25T23:43:21.181Z,7.10
2023-05-25T23:45:48.373Z,7.10
2023-05-25T23:48:15.182Z,7.00
2023-05-25T23:50:41.821Z,7.00
2023-05-25T23:53:08.489Z,7.00
2023-05-25T23:55:35.157Z,7.00
2023-05-25T23:58:01.795Z,7.00
